Nadi, Fiji

12:06 PM FJT on August 04, 2015 (GMT +1200)
Nadi International | | Change Station
CLOSE
Current Station
Airport
Location: Nadi,
Elevation: 59 ft
Nearby Weather Stations

Elev 59 ft 17.76 °S, 177.44 °E | Updated 6 minutes ago

Mostly Cloudy
Mostly Cloudy
79 °F
Feels Like 79 °F
N
9
Wind Variable Wind from WNW

Today
High -- | Low -- °F
--% Chance of Precip.
Yesterday
High -- | Low -- °F
Precip. -- in
6:35 AM 5:57 PM
Waning Gibbous, 83% visible
Pressure 29.89 in
Visibility 6.2 miles
Clouds Few 2800 ft
Scattered Clouds 4800 ft
Mostly Cloudy 11000 ft
Dew Point 64 °F
Humidity 61%
Rainfall 0.00 in
Snow Depth Not available.
UV 0 out of 12
Pollen Not available.
Air Quality Not available.
Flu Activity Not available.
METAR NFFN 040000Z 30008KT 9999 FEW028 SCT048 BKN110 26/18 Q1012

More Conditions Fewer Conditions

Pressure 29.89 in
Visibility 6.2 miles
Clouds Few 2800 ft
Scattered Clouds 4800 ft
Mostly Cloudy 11000 ft
Dew Point 64 °F
Humidity 61%
Rainfall 0.00 in
Snow Depth Not available.
UV 0 out of 12
Pollen Not available.
Air Quality Not available.
Flu Activity Not available.
METAR NFFN 040000Z 30008KT 9999 FEW028 SCT048 BKN110 26/18 Q1012

More Conditions Fewer Conditions

10-Day Weather Forecast

×

Almanac

Astronomy

Aug. 04, 2015 Rise Set
Actual Time
Civil Twilight
Nautical Twilight
Astronomical Twilight
Moon
Length of Visible Light
Length of Day
Tomorrow will be .
, % of the Moon is Illuminated

Today's Extremes

Country Highs Country Lows

Community

WunderPhotos

Upload Photos

1,843,788 photos uploaded!

WunderBlogs® & News

Nearby

Air Quality

  Air Quality AQ Index Pollutant
Not available.

Snow Depth

Station Depth Elevation

Earthquake Activity

City Distance Mag. Time & Date
Minimum magnitude displayed is 2.5.

Coastal Water Temperatures

Place Temperature

Stations

Nearby Weather Stations

Station Location Temp. Windchill Dew Point Humidity Wind Precip. Elev Updated Type